sensor_id;sensor_type;location;lat;lon;timestamp;pressure;altitude;pressure_sealevel;temperature;humidity
38022;BME280;23832;43.216;27.946;2023-05-11T00:01:25;101452.59;;;14.85;100.00
38022;BME280;23832;43.216;27.946;2023-05-11T00:03:30;101446.00;;;14.81;100.00
38022;BME280;23832;43.216;27.946;2023-05-11T00:05:34;101449.88;;;14.93;100.00
38022;BME280;23832;43.216;27.946;2023-05-11T00:07:38;101444.56;;;14.93;100.00
38022;BME280;23832;43.216;27.946;2023-05-11T00:09:47;101445.72;;;14.90;100.00
38022;BME280;23832;43.216;27.946;2023-05-11T00:11:51;101450.31;;;14.96;100.00
38022;BME280;23832;43.216;27.946;2023-05-11T00:13:55;101455.94;;;15.01;100.00
38022;BME280;23832;43.216;27.946;2023-05-11T00:15:58;101451.06;;;15.05;100.00
38022;BME280;23832;43.216;27.946;2023-05-11T00:18:01;101457.66;;;14.94;100.00
38022;BME280;23832;43.216;27.946;2023-05-11T00:20:06;101463.16;;;14.93;100.00
38022;BME280;23832;43.216;27.946;2023-05-11T00:22:08;101451.44;;;15.02;100.00
38022;BME280;23832;43.216;27.946;2023-05-11T00:24:18;101449.88;;;15.08;100.00
38022;BME280;23832;43.216;27.946;2023-05-11T00:26:20;101452.97;;;14.96;100.00
38022;BME280;23832;43.216;27.946;2023-05-11T00:28:23;101455.56;;;15.04;100.00
38022;BME280;23832;43.216;27.946;2023-05-11T00:30:31;101454.69;;;14.74;100.00
38022;BME280;23832;43.216;27.946;2023-05-11T00:32:36;101456.16;;;14.77;100.00
38022;BME280;23832;43.216;27.946;2023-05-11T00:34:42;101455.94;;;15.01;100.00
38022;BME280;23832;43.216;27.946;2023-05-11T00:36:44;101459.31;;;14.95;100.00
38022;BME280;23832;43.216;27.946;2023-05-11T00:38:46;101457.25;;;14.83;100.00
38022;BME280;23832;43.216;27.946;2023-05-11T00:40:49;101458.31;;;14.73;100.00
38022;BME280;23832;43.216;27.946;2023-05-11T00:42:52;101467.44;;;14.94;100.00
38022;BME280;23832;43.216;27.946;2023-05-11T00:44:59;101467.25;;;14.95;100.00
38022;BME280;23832;43.216;27.946;2023-05-11T00:47:15;101460.91;;;14.82;100.00
38022;BME280;23832;43.216;27.946;2023-05-11T00:49:18;101459.81;;;14.91;100.00
38022;BME280;23832;43.216;27.946;2023-05-11T00:51:21;101459.13;;;14.97;100.00
38022;BME280;23832;43.216;27.946;2023-05-11T00:53:23;101452.16;;;14.96;100.00
38022;BME280;23832;43.216;27.946;2023-05-11T00:55:26;101451.78;;;14.99;100.00
38022;BME280;23832;43.216;27.946;2023-05-11T00:57:28;101455.34;;;14.91;100.00
38022;BME280;23832;43.216;27.946;2023-05-11T00:59:37;101448.88;;;14.94;100.00
38022;BME280;23832;43.216;27.946;2023-05-11T01:01:40;101387.13;;;14.47;100.00
38022;BME280;23832;43.216;27.946;2023-05-11T01:03:47;101453.13;;;14.80;100.00
38022;BME280;23832;43.216;27.946;2023-05-11T01:05:56;101451.03;;;14.75;100.00
38022;BME280;23832;43.216;27.946;2023-05-11T01:08:05;101448.19;;;14.77;100.00
38022;BME280;23832;43.216;27.946;2023-05-11T01:10:17;101447.63;;;14.67;100.00
38022;BME280;23832;43.216;27.946;2023-05-11T01:12:27;101448.34;;;14.61;100.00
38022;BME280;23832;43.216;27.946;2023-05-11T01:14:34;101453.75;;;14.67;100.00
38022;BME280;23832;43.216;27.946;2023-05-11T01:16:47;101448.72;;;14.72;100.00
38022;BME280;23832;43.216;27.946;2023-05-11T01:18:57;101449.38;;;14.74;100.00
38022;BME280;23832;43.216;27.946;2023-05-11T01:21:04;101453.66;;;14.61;100.00
38022;BME280;23832;43.216;27.946;2023-05-11T01:25:44;101453.44;;;14.47;100.00
38022;BME280;23832;43.216;27.946;2023-05-11T01:28:11;101456.41;;;14.44;100.00
38022;BME280;23832;43.216;27.946;2023-05-11T01:30:34;101456.50;;;14.59;100.00
38022;BME280;23832;43.216;27.946;2023-05-11T01:32:48;101455.19;;;14.55;100.00
38022;BME280;23832;43.216;27.946;2023-05-11T01:34:53;101452.81;;;14.60;100.00
38022;BME280;23832;43.216;27.946;2023-05-11T01:36:56;101449.38;;;14.74;100.00
38022;BME280;23832;43.216;27.946;2023-05-11T01:39:01;101449.66;;;14.80;100.00
38022;BME280;23832;43.216;27.946;2023-05-11T01:41:08;101452.69;;;14.76;100.00
38022;BME280;23832;43.216;27.946;2023-05-11T01:43:16;101447.63;;;14.67;100.00
38022;BME280;23832;43.216;27.946;2023-05-11T01:45:23;101448.91;;;14.71;100.00
38022;BME280;23832;43.216;27.946;2023-05-11T01:47:34;101441.31;;;14.68;100.00
38022;BME280;23832;43.216;27.946;2023-05-11T01:49:43;101445.44;;;14.70;100.00
38022;BME280;23832;43.216;27.946;2023-05-11T01:51:47;101443.84;;;14.61;100.00
38022;BME280;23832;43.216;27.946;2023-05-11T01:53:59;101437.19;;;14.42;100.00
38022;BME280;23832;43.216;27.946;2023-05-11T01:56:12;101446.69;;;14.60;100.00
38022;BME280;23832;43.216;27.946;2023-05-11T01:58:27;101443.03;;;14.61;100.00
38022;BME280;23832;43.216;27.946;2023-05-11T02:00:34;101438.28;;;14.56;100.00
38022;BME280;23832;43.216;27.946;2023-05-11T02:02:41;101445.56;;;14.54;100.00
38022;BME280;23832;43.216;27.946;2023-05-11T02:04:46;101440.56;;;14.59;100.00
38022;BME280;23832;43.216;27.946;2023-05-11T02:06:49;101440.41;;;14.75;100.00
38022;BME280;23832;43.216;27.946;2023-05-11T02:08:51;101452.13;;;14.66;100.00
38022;BME280;23832;43.216;27.946;2023-05-11T02:10:53;101446.44;;;14.69;100.00
38022;BME280;23832;43.216;27.946;2023-05-11T02:12:59;101446.19;;;14.79;100.00
38022;BME280;23832;43.216;27.946;2023-05-11T02:15:05;101445.72;;;14.75;100.00
38022;BME280;23832;43.216;27.946;2023-05-11T02:17:07;101447.16;;;14.63;100.00
38022;BME280;23832;43.216;27.946;2023-05-11T02:19:11;101445.69;;;14.61;100.00
38022;BME280;23832;43.216;27.946;2023-05-11T02:21:14;101441.94;;;14.70;100.00
38022;BME280;23832;43.216;27.946;2023-05-11T02:23:16;101432.22;;;14.62;100.00
38022;BME280;23832;43.216;27.946;2023-05-11T02:25:18;101446.88;;;14.58;100.00
38022;BME280;23832;43.216;27.946;2023-05-11T02:27:20;101434.63;;;14.57;100.00
38022;BME280;23832;43.216;27.946;2023-05-11T02:29:22;101436.75;;;14.76;100.00
38022;BME280;23832;43.216;27.946;2023-05-11T02:31:24;101443.78;;;14.69;100.00
38022;BME280;23832;43.216;27.946;2023-05-11T02:33:29;101433.53;;;14.66;100.00
38022;BME280;23832;43.216;27.946;2023-05-11T02:35:36;101431.59;;;14.60;100.00
38022;BME280;23832;43.216;27.946;2023-05-11T02:37:40;101431.06;;;14.80;100.00
38022;BME280;23832;43.216;27.946;2023-05-11T02:39:43;101438.47;;;14.69;100.00
38022;BME280;23832;43.216;27.946;2023-05-11T02:41:46;101432.41;;;14.61;100.00
38022;BME280;23832;43.216;27.946;2023-05-11T02:43:51;101430.88;;;14.66;100.00
38022;BME280;23832;43.216;27.946;2023-05-11T02:45:57;101435.19;;;14.67;100.00
38022;BME280;23832;43.216;27.946;2023-05-11T02:47:59;101438.00;;;14.43;100.00
38022;BME280;23832;43.216;27.946;2023-05-11T02:50:05;101436.25;;;14.58;100.00
38022;BME280;23832;43.216;27.946;2023-05-11T02:52:09;101438.84;;;14.66;100.00
38022;BME280;23832;43.216;27.946;2023-05-11T02:54:12;101442.91;;;14.54;100.00
38022;BME280;23832;43.216;27.946;2023-05-11T02:56:16;101448.09;;;14.70;100.00
38022;BME280;23832;43.216;27.946;2023-05-11T02:58:19;101441.50;;;14.66;100.00
38022;BME280;23832;43.216;27.946;2023-05-11T03:00:21;101444.16;;;14.81;100.00
38022;BME280;23832;43.216;27.946;2023-05-11T03:02:23;101440.13;;;14.70;100.00
38022;BME280;23832;43.216;27.946;2023-05-11T03:04:24;101443.25;;;14.74;100.00
38022;BME280;23832;43.216;27.946;2023-05-11T03:06:26;101439.22;;;14.78;100.00
38022;BME280;23832;43.216;27.946;2023-05-11T03:08:30;101446.94;;;14.88;100.00
38022;BME280;23832;43.216;27.946;2023-05-11T03:10:32;101448.50;;;14.97;100.00
38022;BME280;23832;43.216;27.946;2023-05-11T03:12:35;101453.16;;;14.95;100.00
38022;BME280;23832;43.216;27.946;2023-05-11T03:14:38;101452.78;;;14.98;100.00
38022;BME280;23832;43.216;27.946;2023-05-11T03:16:40;101455.44;;;14.98;100.00
38022;BME280;23832;43.216;27.946;2023-05-11T03:18:43;101455.09;;;15.01;100.00
38022;BME280;23832;43.216;27.946;2023-05-11T03:20:45;101461.94;;;14.95;100.00
38022;BME280;23832;43.216;27.946;2023-05-11T03:22:47;101458.28;;;14.96;100.00
38022;BME280;23832;43.216;27.946;2023-05-11T03:24:52;101465.47;;;15.11;100.00
38022;BME280;23832;43.216;27.946;2023-05-11T03:26:54;101461.63;;;15.28;100.00
38022;BME280;23832;43.216;27.946;2023-05-11T03:28:57;101457.00;;;15.37;100.00
38022;BME280;23832;43.216;27.946;2023-05-11T03:31:00;101456.28;;;15.43;100.00
38022;BME280;23832;43.216;27.946;2023-05-11T03:33:02;101460.56;;;15.44;100.00
38022;BME280;23832;43.216;27.946;2023-05-11T03:35:05;101457.56;;;15.47;100.00
38022;BME280;23832;43.216;27.946;2023-05-11T03:37:08;101458.84;;;15.51;100.00
38022;BME280;23832;43.216;27.946;2023-05-11T03:39:12;101458.38;;;15.62;100.00
38022;BME280;23832;43.216;27.946;2023-05-11T03:41:18;101465.13;;;15.79;100.00
38022;BME280;23832;43.216;27.946;2023-05-11T03:43:20;101458.38;;;15.77;100.00
38022;BME280;23832;43.216;27.946;2023-05-11T03:45:22;101460.72;;;15.86;100.00
38022;BME280;23832;43.216;27.946;2023-05-11T03:47:29;101464.13;;;15.80;100.00
38022;BME280;23832;43.216;27.946;2023-05-11T03:49:34;101468.00;;;15.78;100.00
38022;BME280;23832;43.216;27.946;2023-05-11T03:51:37;101464.84;;;15.89;100.00
38022;BME280;23832;43.216;27.946;2023-05-11T03:53:40;101477.88;;;15.84;100.00
38022;BME280;23832;43.216;27.946;2023-05-11T03:55:42;101476.34;;;16.11;100.00
38022;BME280;23832;43.216;27.946;2023-05-11T03:57:45;101469.78;;;16.28;100.00
38022;BME280;23832;43.216;27.946;2023-05-11T03:59:48;101468.94;;;16.28;100.00
38022;BME280;23832;43.216;27.946;2023-05-11T04:01:50;101464.44;;;16.28;100.00
38022;BME280;23832;43.216;27.946;2023-05-11T04:03:53;101464.69;;;16.33;100.00
38022;BME280;23832;43.216;27.946;2023-05-11T04:05:55;101469.38;;;16.31;100.00
38022;BME280;23832;43.216;27.946;2023-05-11T04:08:00;101467.22;;;16.20;100.00
38022;BME280;23832;43.216;27.946;2023-05-11T04:10:02;101470.25;;;16.17;100.00
38022;BME280;23832;43.216;27.946;2023-05-11T04:12:05;101476.13;;;16.27;100.00
38022;BME280;23832;43.216;27.946;2023-05-11T04:14:08;101478.88;;;16.40;100.00
38022;BME280;23832;43.216;27.946;2023-05-11T04:16:11;101471.84;;;16.33;100.00
38022;BME280;23832;43.216;27.946;2023-05-11T04:18:13;101473.13;;;16.37;100.00
38022;BME280;23832;43.216;27.946;2023-05-11T04:20:15;101483.94;;;16.35;100.00
38022;BME280;23832;43.216;27.946;2023-05-11T04:22:17;101485.94;;;16.27;100.00
38022;BME280;23832;43.216;27.946;2023-05-11T04:24:19;101484.13;;;16.34;100.00
38022;BME280;23832;43.216;27.946;2023-05-11T04:26:21;101482.66;;;16.53;100.00
38022;BME280;23832;43.216;27.946;2023-05-11T04:28:23;101485.72;;;16.50;100.00
38022;BME280;23832;43.216;27.946;2023-05-11T04:30:28;101490.28;;;16.77;100.00
38022;BME280;23832;43.216;27.946;2023-05-11T04:32:30;101487.19;;;16.73;100.00
38022;BME280;23832;43.216;27.946;2023-05-11T04:34:32;101489.41;;;16.70;100.00
38022;BME280;23832;43.216;27.946;2023-05-11T04:36:34;101481.75;;;16.82;100.00
38022;BME280;23832;43.216;27.946;2023-05-11T04:38:35;101486.94;;;16.96;95.40
38022;BME280;23832;43.216;27.946;2023-05-11T04:40:38;101481.34;;;16.85;88.24
38022;BME280;23832;43.216;27.946;2023-05-11T04:42:39;101496.59;;;16.97;84.39
38022;BME280;23832;43.216;27.946;2023-05-11T04:44:42;101484.88;;;17.20;81.35
38022;BME280;23832;43.216;27.946;2023-05-11T04:46:46;101497.38;;;17.19;76.42
38022;BME280;23832;43.216;27.946;2023-05-11T04:48:47;101496.06;;;17.43;75.61
38022;BME280;23832;43.216;27.946;2023-05-11T04:50:49;101495.84;;;17.38;73.84
38022;BME280;23832;43.216;27.946;2023-05-11T04:52:51;101508.47;;;17.64;71.81
38022;BME280;23832;43.216;27.946;2023-05-11T04:54:53;101501.72;;;17.62;71.79
38022;BME280;23832;43.216;27.946;2023-05-11T04:56:55;101507.78;;;17.14;70.90
38022;BME280;23832;43.216;27.946;2023-05-11T04:58:58;101497.59;;;17.24;72.53
38022;BME280;23832;43.216;27.946;2023-05-11T05:01:00;101504.22;;;17.00;72.34
38022;BME280;23832;43.216;27.946;2023-05-11T05:03:03;101508.94;;;17.05;73.05
38022;BME280;23832;43.216;27.946;2023-05-11T05:05:05;101515.75;;;16.86;76.33
38022;BME280;23832;43.216;27.946;2023-05-11T05:07:07;101513.22;;;16.99;74.44
38022;BME280;23832;43.216;27.946;2023-05-11T05:09:09;101504.34;;;16.92;78.25
38022;BME280;23832;43.216;27.946;2023-05-11T05:11:11;101519.84;;;17.10;77.07
38022;BME280;23832;43.216;27.946;2023-05-11T05:13:21;101519.84;;;16.82;79.02
38022;BME280;23832;43.216;27.946;2023-05-11T05:15:27;101523.41;;;16.96;79.57
38022;BME280;23832;43.216;27.946;2023-05-11T05:17:31;101523.88;;;17.27;75.25
38022;BME280;23832;43.216;27.946;2023-05-11T05:19:35;101556.75;;;17.41;71.22
38022;BME280;23832;43.216;27.946;2023-05-11T05:21:37;101525.47;;;17.22;72.32
38022;BME280;23832;43.216;27.946;2023-05-11T05:23:43;101531.72;;;17.42;70.22
38022;BME280;23832;43.216;27.946;2023-05-11T05:25:45;101533.34;;;17.37;68.39
38022;BME280;23832;43.216;27.946;2023-05-11T05:27:46;101532.38;;;17.16;69.32
38022;BME280;23832;43.216;27.946;2023-05-11T05:29:48;101531.03;;;16.99;70.59
38022;BME280;23832;43.216;27.946;2023-05-11T05:31:50;101521.81;;;17.29;70.26
38022;BME280;23832;43.216;27.946;2023-05-11T05:33:52;101526.84;;;17.46;70.84
38022;BME280;23832;43.216;27.946;2023-05-11T05:35:55;101530.63;;;17.65;71.83
38022;BME280;23832;43.216;27.946;2023-05-11T05:37:57;101540.53;;;17.36;74.58
38022;BME280;23832;43.216;27.946;2023-05-11T05:39:59;101530.72;;;17.09;77.79
38022;BME280;23832;43.216;27.946;2023-05-11T05:42:01;101533.38;;;16.87;81.59
38022;BME280;23832;43.216;27.946;2023-05-11T05:44:04;101542.13;;;17.65;78.39
38022;BME280;23832;43.216;27.946;2023-05-11T05:46:06;101543.63;;;18.29;73.00
38022;BME280;23832;43.216;27.946;2023-05-11T05:48:08;101551.97;;;18.80;69.38
38022;BME280;23832;43.216;27.946;2023-05-11T05:50:10;101555.84;;;18.84;68.21
38022;BME280;23832;43.216;27.946;2023-05-11T05:52:14;101558.97;;;18.88;66.66
38022;BME280;23832;43.216;27.946;2023-05-11T05:54:16;101557.09;;;19.08;62.59
38022;BME280;23832;43.216;27.946;2023-05-11T05:56:18;101554.81;;;18.85;62.60
38022;BME280;23832;43.216;27.946;2023-05-11T05:58:20;101551.13;;;18.99;61.68
38022;BME280;23832;43.216;27.946;2023-05-11T06:00:22;101556.50;;;18.99;61.36
38022;BME280;23832;43.216;27.946;2023-05-11T06:02:24;101547.78;;;19.57;58.87
38022;BME280;23832;43.216;27.946;2023-05-11T06:04:26;101558.13;;;18.94;59.65
38022;BME280;23832;43.216;27.946;2023-05-11T06:06:28;101557.94;;;18.14;61.16
38022;BME280;23832;43.216;27.946;2023-05-11T06:08:32;101565.03;;;18.55;60.03
38022;BME280;23832;43.216;27.946;2023-05-11T06:10:34;101562.44;;;19.08;57.84
38022;BME280;23832;43.216;27.946;2023-05-11T06:12:36;101553.19;;;18.78;59.21
38022;BME280;23832;43.216;27.946;2023-05-11T06:14:38;101567.53;;;19.49;56.74
38022;BME280;23832;43.216;27.946;2023-05-11T06:16:41;101555.56;;;19.78;55.42
38022;BME280;23832;43.216;27.946;2023-05-11T06:18:43;101568.03;;;20.04;54.76
38022;BME280;23832;43.216;27.946;2023-05-11T06:20:45;101565.16;;;19.93;54.53
38022;BME280;23832;43.216;27.946;2023-05-11T06:22:46;101570.06;;;20.02;53.60
38022;BME280;23832;43.216;27.946;2023-05-11T06:24:50;101562.81;;;19.45;53.65
38022;BME280;23832;43.216;27.946;2023-05-11T06:26:52;101564.22;;;19.54;54.83
38022;BME280;23832;43.216;27.946;2023-05-11T06:28:54;101563.63;;;19.39;54.95
38022;BME280;23832;43.216;27.946;2023-05-11T06:30:56;101566.31;;;19.39;54.97
38022;BME280;23832;43.216;27.946;2023-05-11T06:32:58;101563.69;;;18.99;55.82
38022;BME280;23832;43.216;27.946;2023-05-11T06:35:00;101558.94;;;19.01;55.70
38022;BME280;23832;43.216;27.946;2023-05-11T06:37:02;101570.44;;;19.21;56.33
38022;BME280;23832;43.216;27.946;2023-05-11T06:39:04;101568.72;;;18.48;59.57
38022;BME280;23832;43.216;27.946;2023-05-11T06:41:07;101572.66;;;17.91;63.99
38022;BME280;23832;43.216;27.946;2023-05-11T06:43:10;101556.19;;;18.48;62.70
38022;BME280;23832;43.216;27.946;2023-05-11T06:45:12;101560.94;;;18.53;62.43
38022;BME280;23832;43.216;27.946;2023-05-11T06:47:14;101558.88;;;18.48;63.49
38022;BME280;23832;43.216;27.946;2023-05-11T06:49:16;101556.41;;;18.60;63.35
38022;BME280;23832;43.216;27.946;2023-05-11T06:51:18;101566.75;;;18.83;62.73
38022;BME280;23832;43.216;27.946;2023-05-11T06:53:20;101566.34;;;18.92;63.11
38022;BME280;23832;43.216;27.946;2023-05-11T06:55:22;101573.13;;;18.82;64.98
38022;BME280;23832;43.216;27.946;2023-05-11T06:57:26;101575.41;;;18.98;64.10
38022;BME280;23832;43.216;27.946;2023-05-11T06:59:28;101568.72;;;19.73;61.03
38022;BME280;23832;43.216;27.946;2023-05-11T07:01:29;101563.06;;;20.78;57.40
38022;BME280;23832;43.216;27.946;2023-05-11T07:03:31;101568.34;;;21.59;55.29
38022;BME280;23832;43.216;27.946;2023-05-11T07:05:34;101563.84;;;21.53;53.87
38022;BME280;23832;43.216;27.946;2023-05-11T07:07:36;101564.59;;;21.78;53.49
38022;BME280;23832;43.216;27.946;2023-05-11T07:09:38;101576.69;;;21.51;52.60
38022;BME280;23832;43.216;27.946;2023-05-11T07:11:40;101569.44;;;21.88;52.35
38022;BME280;23832;43.216;27.946;2023-05-11T07:13:47;101572.38;;;22.65;50.19
38022;BME280;23832;43.216;27.946;2023-05-11T07:15:49;101584.94;;;21.49;51.93
38022;BME280;23832;43.216;27.946;2023-05-11T07:17:51;101577.63;;;22.72;50.09
38022;BME280;23832;43.216;27.946;2023-05-11T07:19:53;101583.81;;;22.72;49.34
38022;BME280;23832;43.216;27.946;2023-05-11T07:21:55;101590.91;;;22.06;50.56
38022;BME280;23832;43.216;27.946;2023-05-11T07:23:57;101582.88;;;22.66;49.25
38022;BME280;23832;43.216;27.946;2023-05-11T07:25:59;101582.84;;;22.25;49.18
38022;BME280;23832;43.216;27.946;2023-05-11T07:28:03;101590.03;;;22.13;49.71
38022;BME280;23832;43.216;27.946;2023-05-11T07:30:07;101590.44;;;22.28;49.81
38022;BME280;23832;43.216;27.946;2023-05-11T07:32:08;101595.59;;;22.59;49.24
38022;BME280;23832;43.216;27.946;2023-05-11T07:34:10;101602.88;;;22.41;49.34
38022;BME280;23832;43.216;27.946;2023-05-11T07:36:13;101594.44;;;22.67;48.81
38022;BME280;23832;43.216;27.946;2023-05-11T07:38:15;101589.81;;;21.96;49.19
38022;BME280;23832;43.216;27.946;2023-05-11T07:40:17;101606.97;;;22.13;49.07
38022;BME280;23832;43.216;27.946;2023-05-11T07:42:23;101596.34;;;20.95;52.24
38022;BME280;23832;43.216;27.946;2023-05-11T07:44:25;101595.69;;;22.23;49.77
38022;BME280;23832;43.216;27.946;2023-05-11T07:46:28;101599.81;;;22.07;49.41
38022;BME280;23832;43.216;27.946;2023-05-11T07:48:32;101597.91;;;22.26;49.38
38022;BME280;23832;43.216;27.946;2023-05-11T07:50:34;101602.13;;;23.87;46.47
38022;BME280;23832;43.216;27.946;2023-05-11T07:52:36;101599.22;;;23.54;46.66
38022;BME280;23832;43.216;27.946;2023-05-11T07:54:38;101597.63;;;22.76;47.48
38022;BME280;23832;43.216;27.946;2023-05-11T07:56:40;101597.00;;;22.32;47.95
38022;BME280;23832;43.216;27.946;2023-05-11T07:58:42;101603.00;;;21.61;49.81
38022;BME280;23832;43.216;27.946;2023-05-11T08:00:44;101605.78;;;21.47;49.27
38022;BME280;23832;43.216;27.946;2023-05-11T08:02:47;101604.38;;;21.45;49.65
38022;BME280;23832;43.216;27.946;2023-05-11T08:04:49;101607.78;;;21.34;50.25
38022;BME280;23832;43.216;27.946;2023-05-11T08:06:51;101606.94;;;22.73;48.95
38022;BME280;23832;43.216;27.946;2023-05-11T08:08:53;101606.13;;;22.73;47.76
38022;BME280;23832;43.216;27.946;2023-05-11T08:10:56;101602.84;;;23.12;46.03
38022;BME280;23832;43.216;27.946;2023-05-11T08:12:58;101609.22;;;21.36;49.65
38022;BME280;23832;43.216;27.946;2023-05-11T08:15:01;101609.31;;;22.81;48.58
38022;BME280;23832;43.216;27.946;2023-05-11T08:17:03;101613.38;;;23.49;47.21
38022;BME280;23832;43.216;27.946;2023-05-11T08:19:07;101617.66;;;22.91;48.24
38022;BME280;23832;43.216;27.946;2023-05-11T08:21:09;101604.91;;;22.87;47.21
38022;BME280;23832;43.216;27.946;2023-05-11T08:23:11;101609.72;;;24.02;45.67
38022;BME280;23832;43.216;27.946;2023-05-11T08:25:18;101604.00;;;24.39;44.55
38022;BME280;23832;43.216;27.946;2023-05-11T08:27:20;101616.34;;;25.69;42.37
38022;BME280;23832;43.216;27.946;2023-05-11T08:29:22;101614.44;;;25.47;41.63
38022;BME280;23832;43.216;27.946;2023-05-11T08:31:26;101594.97;;;25.84;41.49
38022;BME280;23832;43.216;27.946;2023-05-11T08:33:28;101597.69;;;26.06;40.72
38022;BME280;23832;43.216;27.946;2023-05-11T08:35:31;101601.88;;;26.19;40.84
38022;BME280;23832;43.216;27.946;2023-05-11T08:37:34;101606.47;;;25.74;40.45
38022;BME280;23832;43.216;27.946;2023-05-11T08:39:35;101608.88;;;26.69;39.19
38022;BME280;23832;43.216;27.946;2023-05-11T08:41:38;101597.25;;;25.70;40.58
38022;BME280;23832;43.216;27.946;2023-05-11T08:43:40;101593.69;;;26.14;40.83
38022;BME280;23832;43.216;27.946;2023-05-11T08:45:43;101600.13;;;26.88;39.69
38022;BME280;23832;43.216;27.946;2023-05-11T08:47:47;101595.16;;;25.61;40.53
38022;BME280;23832;43.216;27.946;2023-05-11T08:49:49;101585.22;;;26.32;40.27
38022;BME280;23832;43.216;27.946;2023-05-11T08:51:53;101590.41;;;27.25;39.25
38022;BME280;23832;43.216;27.946;2023-05-11T08:53:54;101577.44;;;26.95;38.89
38022;BME280;23832;43.216;27.946;2023-05-11T08:55:58;101576.09;;;27.29;38.53
38022;BME280;23832;43.216;27.946;2023-05-11T08:58:01;101583.91;;;27.68;38.44
38022;BME280;23832;43.216;27.946;2023-05-11T09:00:04;101582.47;;;26.81;38.56
38022;BME280;23832;43.216;27.946;2023-05-11T09:02:07;101574.66;;;27.17;37.43
38022;BME280;23832;43.216;27.946;2023-05-11T09:04:11;101581.72;;;27.23;37.32
38022;BME280;23832;43.216;27.946;2023-05-11T09:06:13;101578.19;;;28.47;36.18
38022;BME280;23832;43.216;27.946;2023-05-11T09:08:18;101565.31;;;28.02;36.89
38022;BME280;23832;43.216;27.946;2023-05-11T09:10:21;101566.06;;;25.63;39.45
38022;BME280;23832;43.216;27.946;2023-05-11T09:12:22;101565.72;;;24.70;41.30
38022;BME280;23832;43.216;27.946;2023-05-11T09:14:27;101583.66;;;25.10;40.98
38022;BME280;23832;43.216;27.946;2023-05-11T09:16:29;101567.44;;;25.87;40.36
38022;BME280;23832;43.216;27.946;2023-05-11T09:18:31;101565.13;;;25.96;40.08
38022;BME280;23832;43.216;27.946;2023-05-11T09:20:35;101564.63;;;25.77;40.31
38022;BME280;23832;43.216;27.946;2023-05-11T09:22:40;101572.44;;;26.44;39.55
38022;BME280;23832;43.216;27.946;2023-05-11T09:24:43;101571.06;;;27.06;38.69
38022;BME280;23832;43.216;27.946;2023-05-11T09:26:45;101566.00;;;25.19;40.54
38022;BME280;23832;43.216;27.946;2023-05-11T09:28:47;101562.25;;;24.41;41.95
38022;BME280;23832;43.216;27.946;2023-05-11T09:30:49;101555.78;;;24.42;42.29
38022;BME280;23832;43.216;27.946;2023-05-11T09:32:52;101561.25;;;25.70;40.09
38022;BME280;23832;43.216;27.946;2023-05-11T09:34:54;101560.69;;;25.46;41.07
38022;BME280;23832;43.216;27.946;2023-05-11T09:36:57;101558.78;;;25.85;39.92
38022;BME280;23832;43.216;27.946;2023-05-11T09:39:00;101558.78;;;25.85;38.89
38022;BME280;23832;43.216;27.946;2023-05-11T09:41:04;101549.31;;;24.72;41.13
38022;BME280;23832;43.216;27.946;2023-05-11T09:43:14;101545.50;;;24.39;42.27
38022;BME280;23832;43.216;27.946;2023-05-11T09:47:37;101565.81;;;24.75;41.89
38022;BME280;23832;43.216;27.946;2023-05-11T09:49:53;101569.41;;;24.07;43.11
38022;BME280;23832;43.216;27.946;2023-05-11T09:51:59;101548.22;;;25.62;41.07
38022;BME280;23832;43.216;27.946;2023-05-11T09:54:02;101557.59;;;25.76;40.10
38022;BME280;23832;43.216;27.946;2023-05-11T09:56:16;101549.22;;;25.99;40.25
38022;BME280;23832;43.216;27.946;2023-05-11T09:58:18;101560.88;;;26.54;39.73
38022;BME280;23832;43.216;27.946;2023-05-11T10:00:20;101555.78;;;27.27;38.31
38022;BME280;23832;43.216;27.946;2023-05-11T10:02:22;101568.16;;;24.55;41.85
38022;BME280;23832;43.216;27.946;2023-05-11T10:04:27;101563.59;;;24.89;40.80
38022;BME280;23832;43.216;27.946;2023-05-11T10:06:41;101558.16;;;24.10;42.15
38022;BME280;23832;43.216;27.946;2023-05-11T10:08:43;101542.50;;;25.58;40.34
38022;BME280;23832;43.216;27.946;2023-05-11T10:10:45;101500.06;;;25.15;40.11
38022;BME280;23832;43.216;27.946;2023-05-11T10:12:49;101542.91;;;25.28;40.23
38022;BME280;23832;43.216;27.946;2023-05-11T10:14:53;101554.09;;;25.37;40.08
38022;BME280;23832;43.216;27.946;2023-05-11T10:16:55;101550.13;;;24.72;40.85
38022;BME280;23832;43.216;27.946;2023-05-11T10:18:58;101554.09;;;24.53;41.17
38022;BME280;23832;43.216;27.946;2023-05-11T10:21:00;101547.75;;;25.48;39.63
38022;BME280;23832;43.216;27.946;2023-05-11T10:23:02;101547.66;;;26.30;38.30
38022;BME280;23832;43.216;27.946;2023-05-11T10:25:08;101549.41;;;26.74;37.37
38022;BME280;23832;43.216;27.946;2023-05-11T10:27:10;101542.66;;;24.96;39.55
38022;BME280;23832;43.216;27.946;2023-05-11T10:29:19;101542.34;;;25.26;39.88
38022;BME280;23832;43.216;27.946;2023-05-11T10:31:21;101544.75;;;24.72;40.54
38022;BME280;23832;43.216;27.946;2023-05-11T10:33:27;101544.81;;;24.77;41.25
38022;BME280;23832;43.216;27.946;2023-05-11T10:35:29;101539.81;;;24.69;41.41
38022;BME280;23832;43.216;27.946;2023-05-11T10:37:31;101550.13;;;25.06;41.52
38022;BME280;23832;43.216;27.946;2023-05-11T10:39:34;101548.94;;;25.35;40.87